Time;durP1;ratioP1;P1;durP2;ratioP2;P2;SDS_P1;SDS_P2;PMS_P1;PMS_P2;Temp;Humidity;BMP_temperature;BMP_pressure;BME280_temperature;BME280_humidity;BME280_pressure;Samples;Min_cycle;Max_cycle;Signal;HPM_P1;HPM_P2
2022/03/21 00:00:28;;;;;;;19.15;13.07;;;9.20;27.70;;;;;;4995921;28;20244;-77
2022/03/21 00:02:55;;;;;;;18.10;12.32;;;9.30;27.30;;;;;;4996062;28;20209;-75
2022/03/21 00:05:23;;;;;;;20.95;12.55;;;9.20;27.80;;;;;;4996278;28;20250;-75
2022/03/21 00:07:50;;;;;;;15.52;11.95;;;9.20;27.90;;;;;;4995851;28;20677;-76
2022/03/21 00:10:17;;;;;;;16.67;12.57;;;8.90;28.30;;;;;;4995822;28;20288;-78
2022/03/21 00:12:45;;;;;;;16.77;12.90;;;8.90;28.40;;;;;;4995760;28;20651;-76
2022/03/21 00:15:11;;;;;;;20.42;13.75;;;8.90;28.60;;;;;;4994898;28;20593;-76
2022/03/21 00:17:40;;;;;;;19.48;13.68;;;8.80;28.80;;;;;;4995203;28;20637;-75
2022/03/21 00:20:09;;;;;;;19.38;12.80;;;8.80;28.90;;;;;;4995333;28;20723;-75
2022/03/21 00:22:37;;;;;;;20.63;13.15;;;8.70;29.20;;;;;;4995579;28;20240;-75
2022/03/21 00:25:05;;;;;;;21.95;12.93;;;8.70;29.60;;;;;;4995419;28;20217;-75
2022/03/21 00:27:33;;;;;;;20.25;12.90;;;8.60;29.50;;;;;;4995336;28;20211;-75
2022/03/21 00:30:00;;;;;;;20.20;13.60;;;8.50;29.40;;;;;;4995320;28;20225;-75
2022/03/21 00:32:27;;;;;;;20.33;12.82;;;8.50;29.40;;;;;;4995466;28;20239;-74
2022/03/21 00:34:55;;;;;;;15.60;12.68;;;8.40;29.40;;;;;;4996012;28;20208;-74
2022/03/21 00:37:23;;;;;;;18.48;12.52;;;8.40;29.40;;;;;;4995181;28;20665;-75
2022/03/21 00:39:50;;;;;;;20.65;13.75;;;8.30;29.30;;;;;;4994997;28;20352;-75
2022/03/21 00:42:16;;;;;;;17.80;12.55;;;8.30;29.30;;;;;;4995433;28;20303;-76
2022/03/21 00:44:43;;;;;;;18.20;12.50;;;8.30;29.30;;;;;;4995024;28;20216;-74
2022/03/21 00:47:11;;;;;;;19.30;12.60;;;8.30;29.30;;;;;;4994937;28;20623;-75
2022/03/21 00:49:37;;;;;;;21.65;13.90;;;8.20;29.20;;;;;;4995546;28;20727;-76
2022/03/21 00:52:07;;;;;;;19.67;13.05;;;8.20;29.70;;;;;;5002114;28;20236;-75
2022/03/21 00:54:34;;;;;;;20.20;14.13;;;8.20;29.90;;;;;;5007476;28;20212;-75
2022/03/21 00:57:01;;;;;;;18.58;13.35;;;8.10;29.90;;;;;;5003211;28;20214;-74
2022/03/21 00:59:27;;;;;;;19.88;13.45;;;8.20;29.90;;;;;;5005371;28;20346;-75
2022/03/21 01:01:54;;;;;;;18.65;12.80;;;8.20;29.20;;;;;;4995162;28;20215;-75
2022/03/21 01:04:21;;;;;;;19.98;14.02;;;8.20;29.20;;;;;;4995321;28;20304;-75
2022/03/21 01:06:48;;;;;;;16.15;12.65;;;8.20;29.80;;;;;;4994568;28;20212;-75
2022/03/21 01:09:17;;;;;;;17.52;11.75;;;8.10;29.90;;;;;;4997474;28;20255;-76
2022/03/21 01:11:44;;;;;;;17.17;12.20;;;8.00;29.90;;;;;;5010933;28;20225;-76
2022/03/21 01:14:11;;;;;;;18.70;11.85;;;8.00;29.90;;;;;;5009414;28;20303;-74
2022/03/21 01:16:38;;;;;;;18.73;13.20;;;7.90;30.00;;;;;;4995976;28;20325;-75
2022/03/21 01:19:05;;;;;;;18.20;11.45;;;7.90;30.30;;;;;;4994440;28;20318;-75
2022/03/21 01:21:32;;;;;;;17.52;11.75;;;7.90;30.60;;;;;;4995152;28;20205;-77
2022/03/21 01:23:59;;;;;;;18.83;12.73;;;7.80;31.20;;;;;;4995393;28;20235;-75
2022/03/21 01:26:27;;;;;;;15.30;11.65;;;7.80;30.40;;;;;;4995059;28;20655;-75
2022/03/21 01:28:56;;;;;;;18.15;12.95;;;7.90;30.20;;;;;;4994967;28;20239;-75
2022/03/21 01:31:23;;;;;;;20.15;12.88;;;7.90;30.30;;;;;;4994694;28;20692;-76
2022/03/21 01:33:50;;;;;;;17.90;11.98;;;7.80;30.50;;;;;;4994650;28;20255;-75
2022/03/21 01:36:17;;;;;;;17.92;12.32;;;7.80;30.80;;;;;;4995663;28;20208;-76
2022/03/21 01:38:43;;;;;;;18.38;11.52;;;7.70;31.70;;;;;;4994933;28;20592;-76
2022/03/21 01:41:10;;;;;;;18.52;12.40;;;7.60;31.20;;;;;;4994576;28;20215;-75
2022/03/21 01:43:57;;;;;;;19.95;13.40;;;7.60;31.40;;;;;;4994592;28;20214;-75
2022/03/21 01:46:24;;;;;;;16.38;12.40;;;7.50;31.50;;;;;;4993965;28;20296;-76
2022/03/21 01:48:51;;;;;;;15.50;10.98;;;7.50;31.40;;;;;;4994961;28;20233;-75
2022/03/21 01:51:18;;;;;;;17.35;12.02;;;7.50;32.30;;;;;;4994612;28;20235;-75
2022/03/21 01:56:32;;;;;;;17.95;11.82;;;7.50;31.70;;;;;;4969287;28;20197;-75
2022/03/21 01:59:01;;;;;;;16.70;12.23;;;7.40;32.00;;;;;;4994326;28;20271;-76
2022/03/21 02:01:28;;;;;;;17.60;12.65;;;7.30;32.20;;;;;;4994997;28;20207;-75
2022/03/21 02:03:55;;;;;;;17.33;11.45;;;7.30;32.30;;;;;;4994320;28;20220;-77
2022/03/21 02:06:22;;;;;;;17.33;12.35;;;7.40;32.30;;;;;;4999119;28;20262;-77
2022/03/21 02:08:49;;;;;;;16.55;12.43;;;7.40;32.10;;;;;;4996546;28;20239;-77
2022/03/21 02:11:19;;;;;;;18.67;12.75;;;7.30;32.30;;;;;;4998251;28;20699;-77
2022/03/21 02:13:47;;;;;;;17.83;12.20;;;7.30;32.60;;;;;;4995210;28;20212;-75
2022/03/21 02:16:15;;;;;;;15.63;11.77;;;7.30;32.60;;;;;;4994815;28;20226;-75
2022/03/21 02:18:44;;;;;;;15.00;11.40;;;7.30;32.70;;;;;;4995085;28;20268;-76
2022/03/21 02:21:17;;;;;;;18.35;12.50;;;7.20;33.10;;;;;;4996007;28;20212;-78
2022/03/21 02:23:56;;;;;;;19.55;12.52;;;7.10;33.20;;;;;;4994859;28;20303;-76
2022/03/21 02:26:25;;;;;;;15.63;11.45;;;7.10;33.70;;;;;;4998506;28;20215;-77
2022/03/21 02:28:53;;;;;;;18.58;12.55;;;7.00;33.80;;;;;;5001424;28;20271;-77
2022/03/21 02:31:21;;;;;;;22.13;13.02;;;7.00;33.90;;;;;;5003587;28;20231;-76
2022/03/21 02:33:49;;;;;;;15.88;12.05;;;7.10;33.70;;;;;;5004377;28;20246;-77
2022/03/21 02:36:17;;;;;;;19.83;12.75;;;7.20;33.10;;;;;;4999866;28;20301;-76
2022/03/21 02:38:45;;;;;;;15.60;12.13;;;7.20;33.40;;;;;;4998725;28;20685;-79
2022/03/21 02:41:14;;;;;;;17.40;13.00;;;7.10;33.60;;;;;;5000037;28;20573;-78
2022/03/21 02:43:56;;;;;;;15.13;11.57;;;7.00;34.00;;;;;;5000760;28;20254;-76
2022/03/21 02:46:24;;;;;;;20.83;12.43;;;7.00;34.20;;;;;;5007147;28;20719;-77
2022/03/21 02:48:52;;;;;;;19.77;12.45;;;7.00;34.40;;;;;;5002997;28;20238;-77
2022/03/21 02:51:21;;;;;;;15.85;11.65;;;7.00;34.50;;;;;;5005095;28;20231;-77
2022/03/21 02:53:50;;;;;;;18.70;12.85;;;7.00;34.30;;;;;;5007354;28;20207;-77
2022/03/21 02:56:17;;;;;;;19.20;12.35;;;7.00;34.40;;;;;;5004280;28;20215;-77
2022/03/21 02:58:44;;;;;;;22.15;12.30;;;7.00;34.60;;;;;;5004148;28;20243;-77
2022/03/21 03:01:14;;;;;;;16.75;11.30;;;6.90;34.90;;;;;;5001683;28;20201;-76
2022/03/21 03:03:42;;;;;;;16.10;12.00;;;6.90;35.10;;;;;;5000743;28;20247;-77
2022/03/21 03:06:09;;;;;;;18.10;12.32;;;6.80;35.50;;;;;;5001673;28;20607;-78
2022/03/21 03:08:37;;;;;;;19.65;12.35;;;6.70;35.60;;;;;;5002812;28;20315;-77
2022/03/21 03:11:04;;;;;;;18.73;12.85;;;6.70;35.80;;;;;;5005833;28;20250;-77
2022/03/21 03:13:31;;;;;;;18.10;12.13;;;6.60;36.30;;;;;;5009634;28;20239;-77
2022/03/21 03:15:58;;;;;;;17.10;12.20;;;6.60;36.40;;;;;;5017823;28;20215;-77
2022/03/21 03:18:26;;;;;;;16.85;11.15;;;6.50;36.90;;;;;;5015374;28;20238;-77
2022/03/21 03:20:55;;;;;;;18.25;12.43;;;6.50;37.50;;;;;;5008819;28;20230;-77
2022/03/21 03:23:23;;;;;;;17.45;12.45;;;6.50;37.50;;;;;;5002313;28;20208;-77
2022/03/21 03:25:57;;;;;;;18.17;12.20;;;6.50;37.50;;;;;;5006648;28;20361;-77
2022/03/21 03:28:23;;;;;;;17.88;12.70;;;6.40;37.40;;;;;;5007913;28;20209;-76
2022/03/21 03:30:51;;;;;;;16.92;11.75;;;6.40;37.40;;;;;;5012071;28;20201;-76
2022/03/21 03:33:18;;;;;;;16.23;12.38;;;6.50;37.50;;;;;;5010772;28;20311;-76
2022/03/21 03:35:46;;;;;;;15.75;12.18;;;6.50;37.50;;;;;;5011239;28;20204;-76
2022/03/21 03:38:13;;;;;;;18.08;12.13;;;6.40;37.40;;;;;;5005598;28;20633;-77
2022/03/21 03:40:40;;;;;;;16.27;11.65;;;6.40;37.40;;;;;;5006763;28;20268;-77
2022/03/21 03:43:07;;;;;;;18.67;12.10;;;6.40;37.40;;;;;;4998605;28;20242;-77
2022/03/21 03:45:34;;;;;;;19.25;12.70;;;6.30;37.30;;;;;;4997712;28;20268;-77
2022/03/21 03:48:01;;;;;;;19.10;13.90;;;6.30;37.30;;;;;;4997595;28;20682;-76
2022/03/21 03:50:28;;;;;;;16.42;12.77;;;6.20;37.20;;;;;;4996691;28;20527;-76
2022/03/21 03:52:56;;;;;;;18.02;12.68;;;6.20;37.20;;;;;;4998619;28;20242;-75
2022/03/21 03:55:23;;;;;;;19.88;12.32;;;6.20;37.20;;;;;;4997728;28;20208;-76
2022/03/21 03:57:51;;;;;;;19.52;12.57;;;6.20;37.20;;;;;;4997512;28;20211;-77
2022/03/21 04:00:18;;;;;;;19.80;12.10;;;6.20;37.20;;;;;;4996562;28;20267;-76
2022/03/21 04:05:30;;;;;;;18.45;11.75;;;6.20;37.20;;;;;;4978437;28;20199;-76
2022/03/21 04:07:59;;;;;;;19.55;13.10;;;6.30;37.30;;;;;;4978625;28;20213;-77
2022/03/21 04:10:26;;;;;;;15.50;11.73;;;6.20;37.20;;;;;;4979164;28;20497;-77
2022/03/21 04:12:53;;;;;;;18.30;12.57;;;6.20;37.20;;;;;;4982949;28;20232;-77
2022/03/21 04:15:21;;;;;;;19.50;13.25;;;6.20;37.20;;;;;;4997574;28;20217;-77
2022/03/21 04:17:48;;;;;;;19.63;13.10;;;6.20;37.20;;;;;;5001056;28;20209;-77
2022/03/21 04:20:15;;;;;;;19.77;11.93;;;6.20;37.20;;;;;;5000176;28;20231;-77
2022/03/21 04:22:42;;;;;;;16.88;12.02;;;6.20;37.20;;;;;;4998360;28;20204;-77
2022/03/21 04:25:11;;;;;;;20.77;14.20;;;6.10;37.10;;;;;;5001993;28;20212;-76
2022/03/21 04:27:38;;;;;;;17.75;12.57;;;6.10;37.10;;;;;;5003747;28;20211;-77
2022/03/21 04:30:07;;;;;;;23.77;12.68;;;6.10;37.10;;;;;;5002863;28;20231;-76
2022/03/21 04:32:34;;;;;;;18.42;12.20;;;6.20;37.30;;;;;;5002251;28;20294;-77
2022/03/21 04:35:02;;;;;;;19.63;13.38;;;6.20;37.20;;;;;;5003900;28;20275;-77
2022/03/21 04:37:30;;;;;;;19.75;13.10;;;6.30;37.30;;;;;;5006552;28;20219;-77
2022/03/21 04:39:58;;;;;;;20.88;14.20;;;6.30;37.30;;;;;;5003528;28;20689;-77
2022/03/21 04:42:26;;;;;;;18.20;12.05;;;6.40;37.40;;;;;;4999197;28;20286;-77
2022/03/21 04:44:53;;;;;;;17.90;12.02;;;6.40;37.40;;;;;;4997783;28;20287;-77
2022/03/21 04:47:22;;;;;;;15.68;12.05;;;6.50;37.50;;;;;;4998117;28;20331;-77
2022/03/21 04:49:50;;;;;;;19.25;12.35;;;6.50;37.50;;;;;;4999392;28;20236;-77
2022/03/21 04:52:17;;;;;;;17.95;12.50;;;6.50;37.50;;;;;;5002345;28;20256;-77
2022/03/21 04:54:44;;;;;;;20.92;14.27;;;6.50;38.20;;;;;;4998482;28;20204;-78
2022/03/21 04:57:12;;;;;;;17.50;11.93;;;6.60;37.50;;;;;;5006421;28;20219;-75
2022/03/21 04:59:40;;;;;;;18.20;12.57;;;6.50;37.50;;;;;;5014194;28;20243;-75
2022/03/21 05:02:07;;;;;;;18.45;11.75;;;6.60;37.50;;;;;;5004377;28;20207;-75
2022/03/21 05:04:34;;;;;;;19.02;13.77;;;6.60;37.50;;;;;;4996588;28;20218;-74
2022/03/21 05:07:01;;;;;;;17.10;11.98;;;6.60;37.50;;;;;;4995952;28;20211;-75
2022/03/21 05:09:28;;;;;;;22.42;13.73;;;6.60;37.50;;;;;;4997415;28;20572;-75
2022/03/21 05:11:55;;;;;;;16.73;11.98;;;6.60;37.70;;;;;;4997829;28;20263;-75
2022/03/21 05:14:22;;;;;;;20.13;13.13;;;6.60;37.60;;;;;;4998503;28;20223;-75
2022/03/21 05:16:51;;;;;;;17.80;13.27;;;6.60;37.70;;;;;;5001521;28;20214;-74
2022/03/21 05:19:17;;;;;;;15.25;10.82;;;6.60;38.20;;;;;;5008346;28;20233;-75
2022/03/21 05:21:44;;;;;;;21.58;13.05;;;6.60;38.30;;;;;;5007820;28;20256;-75
2022/03/21 05:32:28;;;;;;;18.60;12.32;;;6.60;38.80;;;;;;5014151;28;20259;-76
2022/03/21 05:37:39;;;;;;;22.95;14.13;;;6.40;39.70;;;;;;5015930;28;20229;-75
2022/03/21 05:42:52;;;;;;;22.67;13.63;;;6.40;39.80;;;;;;5010846;28;20578;-75
2022/03/21 05:45:20;;;;;;;19.40;14.00;;;6.40;39.90;;;;;;5009572;28;20217;-76
2022/03/21 05:50:38;;;;;;;16.45;12.52;;;6.40;40.20;;;;;;5001749;28;20212;-77
2022/03/21 05:53:06;;;;;;;16.02;12.40;;;6.30;40.10;;;;;;4999367;28;20323;-74
2022/03/21 05:55:33;;;;;;;16.38;11.77;;;6.40;40.10;;;;;;4997975;28;20208;-76
2022/03/21 05:58:00;;;;;;;18.60;12.38;;;6.40;40.30;;;;;;4997901;28;20220;-75
2022/03/21 06:00:28;;;;;;;20.10;13.00;;;6.40;40.10;;;;;;4997101;28;20258;-74
2022/03/21 06:02:56;;;;;;;17.02;12.95;;;6.50;40.20;;;;;;4999484;28;20234;-74
2022/03/21 06:05:24;;;;;;;16.05;12.45;;;6.50;40.20;;;;;;5002236;28;20205;-75
2022/03/21 06:07:51;;;;;;;16.38;12.25;;;6.50;40.00;;;;;;5003851;28;20224;-74
2022/03/21 06:10:19;;;;;;;17.88;12.23;;;6.60;40.10;;;;;;5001305;28;20266;-77
2022/03/21 06:12:46;;;;;;;20.90;12.45;;;6.70;39.90;;;;;;5009363;28;20243;-74
2022/03/21 06:15:13;;;;;;;19.58;13.77;;;6.80;39.60;;;;;;5001420;28;20269;-74
2022/03/21 06:17:41;;;;;;;17.05;11.20;;;6.90;40.30;;;;;;4996408;28;20226;-77
2022/03/21 06:20:12;;;;;;;16.50;12.32;;;7.10;39.20;;;;;;4997217;28;20227;-78
2022/03/21 06:22:39;;;;;;;18.13;12.98;;;7.20;38.80;;;;;;4996348;28;20280;-80
2022/03/21 06:25:07;;;;;;;17.67;11.05;;;7.40;38.20;;;;;;4999053;28;20392;-76
2022/03/21 06:27:37;;;;;;;17.25;11.77;;;7.40;38.20;;;;;;4997303;28;20226;-77
2022/03/21 06:30:05;;;;;;;17.13;12.88;;;7.50;38.30;;;;;;4998416;28;20285;-77
2022/03/21 06:32:32;;;;;;;19.60;12.80;;;7.40;38.20;;;;;;4996548;28;20238;-76
2022/03/21 06:34:59;;;;;;;15.70;11.40;;;7.40;39.00;;;;;;5001669;28;20251;-76
2022/03/21 06:37:28;;;;;;;20.52;12.73;;;7.40;39.00;;;;;;5007349;28;20215;-76
2022/03/21 06:39:55;;;;;;;18.08;11.73;;;7.60;38.40;;;;;;5001887;28;20705;-78
2022/03/21 06:42:22;;;;;;;17.17;12.85;;;7.70;38.50;;;;;;4993866;28;20219;-75
2022/03/21 06:44:49;;;;;;;19.45;12.57;;;7.70;38.50;;;;;;4993729;28;20279;-75
2022/03/21 06:47:17;;;;;;;18.55;12.32;;;7.60;38.40;;;;;;4993837;28;20624;-75
2022/03/21 06:49:44;;;;;;;19.30;12.07;;;7.70;38.50;;;;;;4993329;28;20595;-74
2022/03/21 06:52:11;;;;;;;18.10;12.07;;;7.70;38.50;;;;;;4994897;28;20232;-75
2022/03/21 06:54:41;;;;;;;16.00;11.95;;;7.70;38.50;;;;;;5007204;28;20218;-75
2022/03/21 06:57:09;;;;;;;18.77;12.93;;;7.80;38.60;;;;;;5012059;28;20195;-78
2022/03/21 06:59:36;;;;;;;17.92;12.75;;;7.70;38.10;;;;;;5013348;28;20240;-77
2022/03/21 07:02:03;;;;;;;15.05;12.05;;;7.60;38.40;;;;;;5010716;28;20683;-77
2022/03/21 07:04:30;;;;;;;21.48;14.77;;;7.50;38.30;;;;;;5000954;28;20208;-77
2022/03/21 07:06:57;;;;;;;17.25;13.13;;;7.60;38.40;;;;;;4997809;28;20631;-77
2022/03/21 07:09:24;;;;;;;20.77;13.63;;;7.50;38.30;;;;;;4995476;28;20338;-77
2022/03/21 07:11:52;;;;;;;19.17;13.27;;;7.60;38.40;;;;;;4995069;28;20244;-76
2022/03/21 07:14:19;;;;;;;15.80;11.73;;;7.50;38.30;;;;;;4994900;28;20218;-77
2022/03/21 07:16:47;;;;;;;20.92;12.80;;;7.40;38.20;;;;;;4994710;28;20211;-74
2022/03/21 07:19:14;;;;;;;18.15;12.65;;;7.50;38.30;;;;;;4996916;28;20699;-77
2022/03/21 07:21:41;;;;;;;16.70;12.38;;;7.70;38.50;;;;;;4995043;28;20207;-75
2022/03/21 07:24:08;;;;;;;16.95;13.13;;;7.90;37.40;;;;;;5002870;28;20269;-78
2022/03/21 07:26:36;;;;;;;16.55;12.85;;;8.10;37.00;;;;;;4997538;28;20232;-75
2022/03/21 07:29:06;;;;;;;18.40;12.75;;;8.30;36.60;;;;;;4997941;28;20343;-73
2022/03/21 07:31:33;;;;;;;17.05;13.20;;;8.30;36.00;;;;;;5000162;28;20227;-77
2022/03/21 07:34:00;;;;;;;19.63;12.68;;;8.20;36.30;;;;;;4998435;28;20286;-78
2022/03/21 07:36:29;;;;;;;18.88;13.50;;;8.30;36.30;;;;;;4997612;28;20208;-75
2022/03/21 07:38:57;;;;;;;24.67;14.43;;;8.30;36.40;;;;;;4997041;28;20216;-75
2022/03/21 07:41:26;;;;;;;19.83;13.70;;;8.40;36.00;;;;;;4996814;28;20303;-75
2022/03/21 07:43:56;;;;;;;19.50;13.02;;;8.60;35.60;;;;;;4996833;28;20243;-76
2022/03/21 07:49:11;;;;;;;18.13;12.38;;;8.70;35.20;;;;;;4997543;28;20711;-77
2022/03/21 07:51:38;;;;;;;17.17;13.38;;;9.00;34.60;;;;;;4998458;28;20216;-77
2022/03/21 07:54:05;;;;;;;16.20;12.70;;;9.20;34.30;;;;;;5000217;28;20231;-75
2022/03/21 07:56:32;;;;;;;21.00;13.40;;;9.50;33.60;;;;;;5005843;28;20248;-75
2022/03/21 07:59:01;;;;;;;20.40;14.02;;;9.50;33.10;;;;;;5004096;28;20238;-77
2022/03/21 08:01:30;;;;;;;19.08;14.10;;;9.40;33.30;;;;;;5011718;28;20204;-77
2022/03/21 08:04:00;;;;;;;16.83;12.98;;;9.40;33.10;;;;;;5006836;28;20676;-77
2022/03/21 08:06:27;;;;;;;17.95;13.32;;;9.30;33.00;;;;;;4997367;28;20219;-76
2022/03/21 08:08:55;;;;;;;20.70;13.65;;;9.30;33.60;;;;;;4998841;28;20224;-78
2022/03/21 08:11:22;;;;;;;17.55;12.63;;;9.60;33.10;;;;;;4999811;28;20290;-77
2022/03/21 08:13:52;;;;;;;16.80;12.38;;;9.80;32.30;;;;;;4998793;28;20240;-78
2022/03/21 08:16:21;;;;;;;16.88;12.50;;;10.10;30.40;;;;;;4997692;28;20208;-76
2022/03/21 08:18:52;;;;;;;18.40;13.82;;;10.20;29.80;;;;;;5005537;28;20225;-76
2022/03/21 08:21:21;;;;;;;16.77;12.23;;;10.20;29.80;;;;;;4996907;28;20650;-75
2022/03/21 08:23:50;;;;;;;19.02;13.57;;;10.10;29.80;;;;;;5004920;28;20212;-77
2022/03/21 08:26:17;;;;;;;18.60;14.13;;;10.30;29.90;;;;;;4998025;28;20216;-77
2022/03/21 08:28:45;;;;;;;16.13;11.80;;;10.60;30.10;;;;;;5001631;28;20221;-80
2022/03/21 08:31:16;;;;;;;17.67;13.27;;;10.70;30.10;;;;;;5007051;28;20205;-79
2022/03/21 08:33:43;;;;;;;18.77;13.27;;;10.70;30.70;;;;;;5000060;28;20265;-77
2022/03/21 08:36:12;;;;;;;20.05;14.73;;;10.80;29.50;;;;;;4998046;28;20286;-77
2022/03/21 08:38:39;;;;;;;19.88;13.98;;;11.00;29.00;;;;;;5000464;28;20592;-78
2022/03/21 08:41:06;;;;;;;17.92;13.02;;;11.00;29.20;;;;;;5008622;28;20213;-78
2022/03/21 08:43:33;;;;;;;15.27;12.32;;;11.10;28.80;;;;;;5009926;28;20239;-77
2022/03/21 08:46:00;;;;;;;17.63;13.25;;;11.20;28.80;;;;;;5011848;28;20215;-79
2022/03/21 08:51:08;;;;;;;16.08;13.07;;;11.40;28.80;;;;;;5012148;28;20224;-81
2022/03/21 08:53:36;;;;;;;19.77;13.38;;;11.60;28.20;;;;;;5015251;28;20263;-78
2022/03/21 08:56:04;;;;;;;15.85;12.63;;;11.40;28.50;;;;;;5009951;28;20216;-79
2022/03/21 08:58:30;;;;;;;17.45;13.48;;;11.30;28.60;;;;;;5010445;28;20245;-79
2022/03/21 09:00:57;;;;;;;19.10;13.80;;;11.60;28.10;;;;;;4997521;28;20193;-77
2022/03/21 09:03:24;;;;;;;19.17;13.45;;;11.80;27.40;;;;;;4996565;28;20200;-78
2022/03/21 09:05:51;;;;;;;19.33;13.82;;;11.90;27.10;;;;;;4995906;28;20236;-76
2022/03/21 09:08:18;;;;;;;17.33;13.07;;;11.90;27.10;;;;;;4996457;28;20216;-78
2022/03/21 09:10:48;;;;;;;18.70;13.38;;;11.70;27.40;;;;;;4995550;28;20641;-78
2022/03/21 09:13:15;;;;;;;19.13;13.75;;;11.80;27.30;;;;;;4993967;28;20220;-77
2022/03/21 09:15:43;;;;;;;15.80;12.20;;;11.80;27.10;;;;;;4996192;28;20210;-79
2022/03/21 09:18:09;;;;;;;18.80;12.90;;;12.00;26.90;;;;;;4993493;28;20885;-77
2022/03/21 09:20:36;;;;;;;17.52;13.05;;;12.00;27.20;;;;;;4993057;28;20612;-75
2022/03/21 09:23:03;;;;;;;18.20;13.05;;;12.10;26.90;;;;;;4992514;28;20274;-75
2022/03/21 09:25:30;;;;;;;20.23;13.98;;;12.40;26.60;;;;;;4993873;28;20204;-77
2022/03/21 09:27:59;;;;;;;18.48;13.02;;;12.30;26.80;;;;;;4993709;28;20213;-76
2022/03/21 09:30:25;;;;;;;22.52;15.23;;;12.60;25.80;;;;;;4997234;28;20220;-81
2022/03/21 09:32:53;;;;;;;17.05;14.00;;;12.80;24.90;;;;;;5011695;28;20454;-80
2022/03/21 09:35:20;;;;;;;16.73;13.43;;;13.10;24.60;;;;;;5000458;28;20280;-78
2022/03/21 09:37:47;;;;;;;18.60;13.98;;;13.10;24.50;;;;;;5002117;28;20204;-80
2022/03/21 09:40:17;;;;;;;19.20;13.63;;;13.20;24.00;;;;;;5003998;28;20228;-78
2022/03/21 09:42:44;;;;;;;16.98;13.00;;;13.40;24.10;;;;;;4998594;28;20201;-79
2022/03/21 09:45:14;;;;;;;17.40;13.80;;;13.50;24.20;;;;;;5002032;28;20212;-81
2022/03/21 09:50:34;;;;;;;21.45;14.30;;;13.10;24.70;;;;;;4990738;28;20259;-84
2022/03/21 09:53:01;;;;;;;16.40;13.30;;;12.90;25.50;;;;;;5003002;28;20262;-79
2022/03/21 09:55:28;;;;;;;15.90;12.50;;;13.10;25.50;;;;;;4996720;28;20496;-78
2022/03/21 09:57:55;;;;;;;16.80;13.55;;;13.70;24.40;;;;;;4995732;28;20251;-79
2022/03/21 10:00:25;;;;;;;17.40;12.83;;;13.90;24.50;;;;;;4998921;28;20286;-81
2022/03/21 10:02:52;;;;;;;18.38;13.65;;;14.00;24.60;;;;;;5002582;28;20434;-82
2022/03/21 10:05:33;;;;;;;20.05;12.82;;;14.40;23.90;;;;;;5010047;28;20201;-82
2022/03/21 10:08:18;;;;;;;19.43;14.67;;;14.70;22.80;;;;;;5009403;28;20247;-84
2022/03/21 10:11:05;;;;;;;19.07;14.20;;;14.90;22.50;;;;;;5010749;28;20517;-84
2022/03/21 10:13:34;;;;;;;19.93;14.13;;;14.50;22.70;;;;;;5014188;28;20483;-85
2022/03/21 10:16:10;;;;;;;19.13;13.87;;;14.10;23.80;;;;;;5014366;28;20481;-81
2022/03/21 10:18:38;;;;;;;18.77;13.80;;;14.30;23.90;;;;;;5014014;28;20450;-79
2022/03/21 10:21:13;;;;;;;21.23;14.17;;;14.40;23.50;;;;;;5010372;28;20453;-80
2022/03/21 10:23:41;;;;;;;23.37;13.70;;;14.70;24.10;;;;;;5012741;28;20497;-80
2022/03/21 10:26:28;;;;;;;18.30;13.33;;;14.70;23.30;;;;;;5002991;28;20520;-79
2022/03/21 10:28:56;;;;;;;21.23;14.10;;;14.80;23.10;;;;;;4998480;28;20514;-80
2022/03/21 10:31:37;;;;;;;21.43;13.83;;;15.10;22.50;;;;;;5004962;28;20490;-77
2022/03/21 10:34:06;;;;;;;18.47;13.10;;;15.10;22.70;;;;;;5006351;28;20477;-81
2022/03/21 10:36:33;;;;;;;19.50;13.23;;;15.20;22.80;;;;;;5002389;28;20463;-76
2022/03/21 10:39:11;;;;;;;20.50;12.90;;;15.30;22.40;;;;;;4997746;28;20815;-77
2022/03/21 10:41:40;;;;;;;21.50;12.87;;;15.30;22.60;;;;;;5000999;28;20426;-78
2022/03/21 10:44:08;;;;;;;17.60;12.80;;;15.50;22.40;;;;;;5005520;28;20491;-77
2022/03/21 10:46:37;;;;;;;17.10;14.10;;;15.50;22.10;;;;;;5048287;22;20488;-80
2022/03/21 10:49:07;;;;;;;16.60;12.67;;;15.70;22.30;;;;;;5034217;28;20426;-77
2022/03/21 10:51:50;;;;;;;15.70;11.47;;;15.90;21.80;;;;;;5032041;28;20466;-80
2022/03/21 10:54:39;;;;;;;17.87;13.10;;;15.50;22.10;;;;;;5035687;28;20449;-78
2022/03/21 10:57:07;;;;;;;20.90;12.90;;;14.90;23.00;;;;;;5036874;28;20444;-80
2022/03/21 10:59:34;;;;;;;16.80;12.33;;;15.00;22.70;;;;;;5029342;28;20971;-80
2022/03/21 11:02:14;;;;;;;17.20;12.57;;;15.20;23.00;;;;;;5037601;28;20878;-80
2022/03/21 11:04:44;;;;;;;19.53;13.17;;;15.50;22.20;;;;;;5036848;28;20486;-80
2022/03/21 11:07:12;;;;;;;16.17;11.17;;;15.70;21.40;;;;;;5037014;28;20452;-80
2022/03/21 11:09:40;;;;;;;16.77;11.83;;;15.90;21.50;;;;;;5034798;28;20453;-78
2022/03/21 11:12:09;;;;;;;14.80;11.70;;;16.00;21.50;;;;;;5038941;28;20673;-77
2022/03/21 11:14:38;;;;;;;17.67;12.07;;;15.80;21.90;;;;;;5037908;28;20521;-80
2022/03/21 11:17:06;;;;;;;14.13;11.30;;;15.60;22.20;;;;;;5035317;28;20477;-79
2022/03/21 11:19:34;;;;;;;18.27;12.70;;;15.70;21.70;;;;;;5034497;28;20497;-79
2022/03/21 11:22:01;;;;;;;15.13;11.80;;;15.60;21.80;;;;;;5038084;28;20539;-81
2022/03/21 11:24:29;;;;;;;17.57;11.63;;;15.60;21.80;;;;;;5035173;28;20476;-79
2022/03/21 11:27:09;;;;;;;15.60;12.33;;;15.90;21.30;;;;;;5026659;28;20523;-80
2022/03/21 11:29:45;;;;;;;17.17;12.30;;;16.20;21.30;;;;;;5036292;28;20453;-78
2022/03/21 11:32:29;;;;;;;16.13;11.40;;;16.40;20.90;;;;;;5037687;28;20490;-79
2022/03/21 11:35:05;;;;;;;15.43;12.33;;;16.40;21.00;;;;;;5039161;28;20521;-79
2022/03/21 11:37:33;;;;;;;16.90;12.10;;;16.50;21.20;;;;;;5037448;28;20497;-80
2022/03/21 11:40:30;;;;;;;15.33;12.33;;;16.30;21.90;;;;;;5028720;28;20463;-80
2022/03/21 11:43:17;;;;;;;20.10;12.80;;;16.20;21.70;;;;;;5027072;28;20438;-81
2022/03/21 11:45:46;;;;;;;16.30;12.17;;;16.40;21.60;;;;;;5022191;28;20451;-79
2022/03/21 11:48:36;;;;;;;15.60;12.07;;;16.70;21.20;;;;;;5026767;28;20474;-79
2022/03/21 11:51:35;;;;;;;17.57;13.27;;;16.70;21.30;;;;;;5025942;28;20441;-78
2022/03/21 11:54:02;;;;;;;17.97;13.33;;;16.60;21.50;;;;;;5024795;28;20501;-80
2022/03/21 11:56:58;;;;;;;18.60;12.80;;;16.60;21.50;;;;;;5031693;28;20414;-80
2022/03/21 11:59:53;;;;;;;23.03;11.97;;;16.90;21.20;;;;;;5039181;28;20454;-79
2022/03/21 12:02:58;;;;;;;23.60;14.10;;;17.10;20.80;;;;;;5027608;28;20420;-78
2022/03/21 12:05:51;;;;;;;15.83;12.20;;;17.20;20.80;;;;;;5030845;28;20508;-80
2022/03/21 12:08:48;;;;;;;14.50;12.03;;;17.00;21.00;;;;;;5034518;28;20429;-80
2022/03/21 12:12:03;;;;;;;17.40;12.53;;;17.20;20.70;;;;;;5029154;28;20450;-78
2022/03/21 12:14:41;;;;;;;17.50;12.13;;;17.30;20.70;;;;;;5035625;28;20501;-78
2022/03/21 12:17:39;;;;;;;16.47;12.30;;;17.40;20.40;;;;;;5020940;28;20442;-78
2022/03/21 12:20:16;;;;;;;15.70;11.47;;;17.70;20.00;;;;;;5029111;28;20405;-80
2022/03/21 12:22:48;;;;;;;15.47;11.87;;;17.30;20.60;;;;;;5038729;28;20441;-78
2022/03/21 12:25:22;;;;;;;20.40;12.17;;;17.70;20.30;;;;;;5035486;28;20430;-79
2022/03/21 12:27:51;;;;;;;18.20;12.47;;;17.70;19.70;;;;;;5034933;28;20445;-79
2022/03/21 12:30:49;;;;;;;17.60;13.20;;;18.10;19.30;;;;;;5027696;28;20417;-77
2022/03/21 12:33:30;;;;;;;17.50;12.30;;;18.30;19.40;;;;;;5028585;28;20455;-78
2022/03/21 12:36:04;;;;;;;15.77;11.57;;;18.30;19.40;;;;;;5036354;28;20499;-79
2022/03/21 12:38:37;;;;;;;17.47;12.83;;;17.90;19.60;;;;;;5028151;28;20440;-80
2022/03/21 12:41:15;;;;;;;14.77;12.47;;;18.00;19.20;;;;;;5033462;28;20430;-79
2022/03/21 12:43:52;;;;;;;19.73;12.70;;;17.90;19.30;;;;;;5033008;28;20460;-79
2022/03/21 12:46:21;;;;;;;13.23;11.27;;;18.00;19.20;;;;;;5037106;28;20488;-79
2022/03/21 12:48:50;;;;;;;16.53;11.33;;;18.00;19.30;;;;;;5034269;28;20455;-79
2022/03/21 12:51:32;;;;;;;15.60;11.43;;;17.80;20.00;;;;;;5015533;28;20465;-78
2022/03/21 12:54:02;;;;;;;13.70;10.50;;;18.00;19.20;;;;;;5034953;28;20481;-77
2022/03/21 12:56:32;;;;;;;14.30;11.60;;;17.50;20.40;;;;;;5030314;28;20453;-79
2022/03/21 12:59:01;;;;;;;17.37;11.93;;;17.70;20.10;;;;;;5024882;28;20459;-79
2022/03/21 13:01:29;;;;;;;16.70;11.20;;;17.50;20.20;;;;;;5023672;28;20474;-79
2022/03/21 13:10:32;;;;;;;15.40;10.20;;;17.80;19.80;;;;;;5024952;28;20439;-78
2022/03/21 13:12:35;;;;;;;14.40;10.83;;;18.20;19.40;;;;;;5009861;28;20437;-80
2022/03/21 13:15:04;;;;;;;16.67;11.17;;;17.90;19.20;;;;;;5018940;28;20563;-79
2022/03/21 13:17:51;;;;;;;12.47;11.00;;;17.70;19.90;;;;;;5018860;28;20477;-83
2022/03/21 13:20:23;;;;;;;12.60;10.17;;;17.70;19.60;;;;;;5018403;28;20463;-81
2022/03/21 13:22:50;;;;;;;18.50;9.60;;;17.70;20.10;;;;;;5020787;28;20431;-82